Terminal Aerodrome Forecast
Issued by NWS Binghamton, NY

Home | Current Version | Previous Version | Text Only | Print | Product List | Glossary On
Versions: 1 2 3 4 5 6 7 8 9 10 11 12 13 14 15 16
217
FTUS41 KBGM 221735 AAA
TAFAVP
TAF AMD
KAVP 221735Z 2218/2318 33011G21KT P6SM BKN050
     FM222200 33011KT P6SM SCT090
     FM230500 32007KT P6SM SCT250
     FM231700 28005KT P6SM SCT250=

USA.gov is the U.S. government's official web portal to all federal, state and local government web resources and services.